createdAt,value
2024-01-16T05:04:31.450Z,100.00
2024-01-16T05:08:44.120Z,100.00
2024-01-16T05:12:55.710Z,100.00
2024-01-16T05:17:07.589Z,100.00
2024-01-16T05:21:19.247Z,100.00
2024-01-16T05:25:31.867Z,100.00
2024-01-16T05:29:44.701Z,100.00
2024-01-16T05:33:56.559Z,100.00
2024-01-16T05:38:08.253Z,100.00
2024-01-16T05:42:19.855Z,100.00
2024-01-16T05:46:34.542Z,100.00
2024-01-16T05:50:46.247Z,100.00
2024-01-16T05:54:59.237Z,100.00
2024-01-16T05:59:10.843Z,100.00
2024-01-16T06:03:22.362Z,100.00
2024-01-16T06:07:33.845Z,100.00
2024-01-16T06:11:45.382Z,100.00
2024-01-16T06:15:56.901Z,100.00
2024-01-16T06:20:08.741Z,100.00
2024-01-16T06:24:20.256Z,100.00
2024-01-16T06:28:31.728Z,100.00
2024-01-16T06:32:43.349Z,100.00
2024-01-16T06:36:54.969Z,100.00
2024-01-16T06:41:07.206Z,100.00
2024-01-16T06:45:20.214Z,100.00
2024-01-16T06:49:31.756Z,100.00
2024-01-16T06:53:43.332Z,100.00
2024-01-16T06:57:54.901Z,100.00
2024-01-16T07:02:07.136Z,100.00
2024-01-16T07:06:18.732Z,100.00
2024-01-16T07:10:30.456Z,100.00
2024-01-16T07:14:41.997Z,100.00
2024-01-16T07:18:54.759Z,100.00
2024-01-16T07:23:06.493Z,100.00
2024-01-16T07:27:17.984Z,100.00
2024-01-16T07:31:29.497Z,100.00
2024-01-16T07:35:42.467Z,100.00
2024-01-16T07:39:54.195Z,100.00
2024-01-16T07:44:05.702Z,100.00
2024-01-16T07:48:17.381Z,100.00
2024-01-16T07:52:29.528Z,100.00
2024-01-16T07:56:41.187Z,100.00
2024-01-16T08:00:52.912Z,100.00
2024-01-16T08:05:05.739Z,100.00
2024-01-16T08:09:17.262Z,100.00
2024-01-16T08:13:29.497Z,100.00
2024-01-16T08:17:41.203Z,100.00
2024-01-16T08:21:52.777Z,100.00
2024-01-16T08:26:04.407Z,100.00
2024-01-16T08:30:16.388Z,100.00
2024-01-16T08:34:28.001Z,100.00
2024-01-16T08:38:39.556Z,100.00
2024-01-16T08:42:57.988Z,100.00
2024-01-16T08:47:10.554Z,100.00
2024-01-16T08:51:22.179Z,100.00
2024-01-16T08:55:33.658Z,100.00
2024-01-16T08:59:45.569Z,100.00
2024-01-16T09:03:57.302Z,100.00
2024-01-16T09:08:11.854Z,100.00
2024-01-16T09:12:25.153Z,100.00
2024-01-16T09:16:36.730Z,100.00
2024-01-16T09:20:49.615Z,100.00
2024-01-16T09:25:02.480Z,100.00
2024-01-16T09:29:15.505Z,100.00
2024-01-16T09:33:27.386Z,100.00
2024-01-16T09:37:41.558Z,100.00
2024-01-16T09:41:53.543Z,100.00
2024-01-16T09:46:06.884Z,100.00
2024-01-16T09:50:19.988Z,100.00
2024-01-16T09:54:31.500Z,100.00
2024-01-16T09:58:44.757Z,99.18
2024-01-16T10:03:00.010Z,97.21
2024-01-16T10:07:13.770Z,95.02
2024-01-16T10:11:25.252Z,94.34
2024-01-16T10:15:36.911Z,93.27
2024-01-16T10:19:56.331Z,91.53
2024-01-16T10:24:14.323Z,89.76
2024-01-16T10:28:26.034Z,89.79
2024-01-16T10:32:40.152Z,88.43
2024-01-16T10:36:59.093Z,86.66
2024-01-16T10:41:15.615Z,86.53
2024-01-16T10:45:27.860Z,86.64
2024-01-16T10:49:43.333Z,86.58
2024-01-16T10:54:06.589Z,92.23
2024-01-16T10:58:22.609Z,86.09
2024-01-16T11:02:44.124Z,83.39
2024-01-16T11:06:55.878Z,84.48
2024-01-16T11:11:09.120Z,82.22
2024-01-16T11:15:20.924Z,83.08
2024-01-16T11:19:48.289Z,82.66
2024-01-16T11:24:06.039Z,81.53
2024-01-16T11:28:17.581Z,81.10
2024-01-16T11:32:41.705Z,82.26
2024-01-16T11:36:58.310Z,81.90
2024-01-16T11:41:09.864Z,81.32
2024-01-16T11:45:30.474Z,80.87
2024-01-16T11:49:42.404Z,81.47
2024-01-16T11:53:54.105Z,79.94
2024-01-16T11:58:46.123Z,78.46
2024-01-16T12:02:58.365Z,79.33
2024-01-16T12:07:10.116Z,75.70
2024-01-16T12:11:27.862Z,77.81
2024-01-16T12:15:42.698Z,77.34
2024-01-16T12:19:54.631Z,76.79
2024-01-16T12:24:11.023Z,75.71
2024-01-16T12:28:32.108Z,77.05
2024-01-16T12:32:49.069Z,75.29
2024-01-16T12:37:07.938Z,72.90
2024-01-16T12:41:26.484Z,72.50
2024-01-16T12:45:41.281Z,71.22
2024-01-16T12:49:53.983Z,69.45
2024-01-16T12:54:14.056Z,70.27
2024-01-16T12:58:28.217Z,69.89
2024-01-16T13:02:39.787Z,67.66
2024-01-16T13:06:51.617Z,69.15
2024-01-16T13:11:08.313Z,67.72
2024-01-16T13:15:19.826Z,67.50
2024-01-16T13:19:34.543Z,68.02
2024-01-16T13:23:47.170Z,68.69
2024-01-16T13:27:58.661Z,67.91
2024-01-16T13:32:10.154Z,68.35
2024-01-16T13:36:40.522Z,66.50
2024-01-16T13:40:55.469Z,68.38
2024-01-16T13:45:07.215Z,68.59
2024-01-16T13:49:18.818Z,68.57
2024-01-16T13:53:30.525Z,67.70
2024-01-16T13:57:42.228Z,68.45
2024-01-16T14:01:53.769Z,68.13
2024-01-16T14:06:05.577Z,68.73
2024-01-16T14:10:18.523Z,68.80
2024-01-16T14:14:30.110Z,69.81
2024-01-16T14:18:41.799Z,69.43
2024-01-16T14:22:57.228Z,68.99
2024-01-16T14:27:09.128Z,69.79
2024-01-16T14:31:20.709Z,68.03
2024-01-16T14:35:32.317Z,69.57
2024-01-16T14:39:43.947Z,70.80
2024-01-16T14:43:55.641Z,70.97
2024-01-16T14:48:07.366Z,70.89
2024-01-16T14:52:19.215Z,71.74
2024-01-16T14:56:31.423Z,71.40
2024-01-16T15:00:46.559Z,71.74
2024-01-16T15:04:58.210Z,72.10
2024-01-16T15:09:13.984Z,73.72
2024-01-16T15:13:25.998Z,73.17
2024-01-16T15:17:37.988Z,75.24
2024-01-16T15:21:49.622Z,75.79
2024-01-16T15:26:04.280Z,76.95
2024-01-16T15:30:16.233Z,77.35
2024-01-16T15:34:28.082Z,78.17
2024-01-16T15:38:39.831Z,78.55
2024-01-16T15:42:51.763Z,79.76
2024-01-16T15:47:04.443Z,80.52
2024-01-16T15:51:17.279Z,81.28
2024-01-16T15:55:28.926Z,81.99
2024-01-16T15:59:40.488Z,84.09
2024-01-16T16:03:52.053Z,86.60
2024-01-16T16:08:05.418Z,88.91
2024-01-16T16:12:18.897Z,89.66
2024-01-16T16:16:32.066Z,91.22
2024-01-16T16:20:43.852Z,91.77
2024-01-16T16:24:55.372Z,92.45
2024-01-16T16:29:10.097Z,92.66
2024-01-16T16:33:21.814Z,93.45
2024-01-16T16:37:33.477Z,93.90
2024-01-16T16:41:45.117Z,94.69
2024-01-16T16:45:56.647Z,94.61
2024-01-16T16:50:10.279Z,95.89
2024-01-16T16:54:21.844Z,96.03
2024-01-16T16:58:33.547Z,96.72
2024-01-16T17:02:45.071Z,97.17
2024-01-16T17:06:57.943Z,97.50
2024-01-16T17:11:10.201Z,97.75
2024-01-16T17:15:21.703Z,98.09
2024-01-16T17:19:33.215Z,98.63
2024-01-16T17:23:45.718Z,98.47
2024-01-16T17:27:57.239Z,98.83
2024-01-16T17:32:08.893Z,99.58
2024-01-16T17:36:21.392Z,99.90
2024-01-16T17:40:33.186Z,99.15
2024-01-16T17:44:49.083Z,100.00
2024-01-16T17:49:00.792Z,100.00
2024-01-16T17:53:13.189Z,100.00
2024-01-16T17:57:24.830Z,100.00
2024-01-16T18:01:36.426Z,100.00
2024-01-16T18:05:50.648Z,100.00
2024-01-16T18:10:02.806Z,100.00
2024-01-16T18:14:15.016Z,100.00
2024-01-16T18:18:27.622Z,100.00
2024-01-16T18:22:39.415Z,100.00
2024-01-16T18:26:51.222Z,100.00
2024-01-16T18:31:03.977Z,100.00
2024-01-16T18:35:19.842Z,100.00
2024-01-16T18:39:32.735Z,100.00
2024-01-16T18:43:44.489Z,100.00
2024-01-16T18:47:56.353Z,100.00
2024-01-16T18:52:08.548Z,100.00
2024-01-16T18:56:20.197Z,100.00
2024-01-16T19:00:31.776Z,100.00
2024-01-16T19:04:47.556Z,100.00
2024-01-16T19:08:59.535Z,100.00
2024-01-16T19:13:12.245Z,100.00
2024-01-16T19:17:23.928Z,100.00
2024-01-16T19:21:35.498Z,100.00
2024-01-16T19:25:48.797Z,100.00
2024-01-16T19:30:04.913Z,100.00
2024-01-16T19:34:16.618Z,100.00
2024-01-16T19:38:28.557Z,100.00
2024-01-16T19:42:40.704Z,100.00
2024-01-16T19:46:54.240Z,100.00
2024-01-16T19:51:06.352Z,100.00
2024-01-16T19:55:20.587Z,100.00
2024-01-16T19:59:33.872Z,100.00
2024-01-16T20:03:45.423Z,100.00
2024-01-16T20:07:57.117Z,100.00
2024-01-16T20:12:08.978Z,100.00
2024-01-16T20:16:22.681Z,100.00
2024-01-16T20:20:35.207Z,100.00
2024-01-16T20:24:46.783Z,100.00
2024-01-16T20:28:58.424Z,100.00
2024-01-16T20:33:12.984Z,100.00
2024-01-16T20:37:24.567Z,100.00
2024-01-16T20:41:36.338Z,100.00
2024-01-16T20:45:48.504Z,100.00
2024-01-16T20:50:00.323Z,100.00
2024-01-16T20:54:12.168Z,100.00
2024-01-16T20:58:25.246Z,100.00
2024-01-16T21:02:36.773Z,100.00
2024-01-16T21:06:49.280Z,100.00
2024-01-16T21:11:00.924Z,100.00
2024-01-16T21:15:12.513Z,100.00
2024-01-16T21:19:24.079Z,100.00
2024-01-16T21:23:36.200Z,100.00
2024-01-16T21:27:48.136Z,100.00
2024-01-16T21:32:00.263Z,100.00
2024-01-16T21:36:13.924Z,100.00
2024-01-16T21:40:25.508Z,100.00
2024-01-16T21:44:37.092Z,100.00
2024-01-16T21:48:48.798Z,100.00
2024-01-16T21:53:00.693Z,100.00
2024-01-16T21:57:12.287Z,100.00
2024-01-16T22:01:23.805Z,100.00
2024-01-16T22:05:36.006Z,100.00
2024-01-16T22:09:47.865Z,100.00
2024-01-16T22:14:00.348Z,100.00
2024-01-16T22:18:11.987Z,100.00
2024-01-16T22:22:24.731Z,100.00
2024-01-16T22:26:36.434Z,100.00
